Time;durP1;ratioP1;P1;durP2;ratioP2;P2;SDS_P1;SDS_P2;PMS_P1;PMS_P2;Temp;Humidity;BMP_temperature;BMP_pressure;BME280_temperature;BME280_humidity;BME280_pressure;Samples;Min_cycle;Max_cycle;Signal;HPM_P1;HPM_P2
2022/06/03 00:02:33;;;;;;;;;;;;;;;;;;12550260;28;19927;-80
2022/06/03 00:08:35;;;;;;;;;;;;;;;;;;12532387;28;20377;-80
2022/06/03 00:14:36;;;;;;;;;;;;;;;;;;12530741;28;20369;-80
2022/06/03 00:20:38;;;;;;;;;;;;;;;;;;12549406;28;19912;-80
2022/06/03 00:26:39;;;;;;;;;;;;;;;;;;12531459;28;19917;-80
2022/06/03 00:32:41;;;;;;;;;;;;;;;;;;12531444;28;19923;-80
2022/06/03 00:38:42;;;;;;;;;;;;;;;;;;12548726;28;19915;-80
2022/06/03 00:44:44;;;;;;;;;;;;;;;;;;12548961;28;19924;-80
2022/06/03 00:50:45;;;;;;;;;;;;;;;;;;12548827;28;19909;-80
2022/06/03 00:56:47;;;;;;;;;;;;;;;;;;12547635;28;19923;-80
2022/06/03 01:02:50;;;;;;;;;;;;;;;;;;12547572;28;19929;-80
2022/06/03 01:08:51;;;;;;;;;;;;;;;;;;12547242;28;19912;-80
2022/06/03 01:14:53;;;;;;;;;;;;;;;;;;12529216;28;19932;-80
2022/06/03 01:20:54;;;;;;;;;;;;;;;;;;12528784;28;20289;-80
2022/06/03 01:26:56;;;;;;;;;;;;;;;;;;12545785;28;20293;-80
2022/06/03 01:32:57;;;;;;;;;;;;;;;;;;12545898;28;19920;-80
2022/06/03 01:38:59;;;;;;;;;;;;;;;;;;12545884;28;19912;-80
2022/06/03 01:45:01;;;;;;;;;;;;;;;;;;12545189;28;19917;-80
2022/06/03 01:51:03;;;;;;;;;;;;;;;;;;12545234;28;19915;-80
2022/06/03 01:57:05;;;;;;;;;;;;;;;;;;12527846;28;19931;-80
2022/06/03 02:03:07;;;;;;;;;;;;;;;;;;12544757;28;19928;-80
2022/06/03 02:09:09;;;;;;;;;;;;;;;;;;12526925;28;19909;-80
2022/06/03 02:15:10;;;;;;;;;;;;;;;;;;12527592;28;19909;-80
2022/06/03 02:21:11;;;;;;;;;;;;;;;;;;12544485;28;19916;-80
2022/06/03 02:27:13;;;;;;;;;;;;;;;;;;12544796;28;19916;-80
2022/06/03 02:33:14;;;;;;;;;;;;;;;;;;12544128;28;20285;-80
2022/06/03 02:39:16;;;;;;;;;;;;;;;;;;12536327;28;20382;-80
2022/06/03 02:45:17;;;;;;;;;;;;;;;;;;12536089;28;19917;-80
2022/06/03 02:51:19;;;;;;;;;;;;;;;;;;12536449;28;19916;-79
2022/06/03 02:57:21;;;;;;;;;;;;;;;;;;12554185;28;19920;-79
2022/06/03 03:03:22;;;;;;;;;;;;;;;;;;12552973;28;19921;-80
2022/06/03 03:09:24;;;;;;;;;;;;;;;;;;12535752;28;20278;-80
2022/06/03 03:15:26;;;;;;;;;;;;;;;;;;12552816;28;20293;-79
2022/06/03 03:21:27;;;;;;;;;;;;;;;;;;12517896;28;19920;-79
2022/06/03 03:27:29;;;;;;;;;;;;;;;;;;12553415;28;19923;-79
2022/06/03 03:33:30;;;;;;;;;;;;;;;;;;12534507;28;19919;-80
2022/06/03 03:39:32;;;;;;;;;;;;;;;;;;12533981;28;20357;-80
2022/06/03 03:45:33;;;;;;;;;;;;;;;;;;12551082;28;19923;-79
2022/06/03 03:51:35;;;;;;;;;;;;;;;;;;12550875;28;19915;-80
2022/06/03 03:57:36;;;;;;;;;;;;;;;;;;12533437;28;19915;-80
2022/06/03 04:03:38;;;;;;;;;;;;;;;;;;12550136;28;20313;-80
2022/06/03 04:09:39;;;;;;;;;;;;;;;;;;12515915;28;19908;-80
2022/06/03 04:15:41;;;;;;;;;;;;;;;;;;12531701;28;19919;-80
2022/06/03 04:21:42;;;;;;;;;;;;;;;;;;12548978;28;19909;-79
2022/06/03 04:27:44;;;;;;;;;;;;;;;;;;12532846;28;19939;-79
2022/06/03 04:33:45;;;;;;;;;;;;;;;;;;12549151;28;19913;-79
2022/06/03 04:39:47;;;;;;;;;;;;;;;;;;12548539;28;19909;-79
2022/06/03 04:45:48;;;;;;;;;;;;;;;;;;12530277;28;19923;-79
2022/06/03 04:51:50;;;;;;;;;;;;;;;;;;12547905;28;20362;-79
2022/06/03 04:57:52;;;;;;;;;;;;;;;;;;12547595;28;19913;-79
2022/06/03 05:03:53;;;;;;;;;;;;;;;;;;12513188;28;19928;-79
2022/06/03 05:09:55;;;;;;;;;;;;;;;;;;12547289;28;19908;-80
2022/06/03 05:15:57;;;;;;;;;;;;;;;;;;12546904;28;20400;-79
2022/06/03 05:21:59;;;;;;;;;;;;;;;;;;12546342;28;20389;-79
2022/06/03 05:28:00;;;;;;;;;;;;;;;;;;12547203;28;19917;-81
2022/06/03 05:34:02;;;;;;;;;;;;;;;;;;12544107;28;19923;-90
2022/06/03 05:40:03;;;;;;;;;;;;;;;;;;12518393;28;20280;-84
2022/06/03 05:46:05;;;;;;;;;;;;;;;;;;12544374;28;20284;-86
2022/06/03 05:52:06;;;;;;;;;;;;;;;;;;12519371;28;19927;-87
2022/06/03 05:58:08;;;;;;;;;;;;;;;;;;12536270;28;19940;-86
2022/06/03 06:04:09;;;;;;;;;;;;;;;;;;12522327;28;20106;-83
2022/06/03 06:10:11;;;;;;;;;;;;;;;;;;12520781;28;20388;-85
2022/06/03 06:16:12;;;;;;;;;;;;;;;;;;12537675;28;19909;-86
2022/06/03 06:22:16;;;;;;;;;;;;;;;;;;12516751;28;19924;-84
2022/06/03 06:29:03;;;;;;;;;;;;;;;;;;12523124;28;19917;-84
2022/06/03 06:35:07;;;;;;;;;;;;;;;;;;12529411;28;19920;-85
2022/06/03 06:41:09;;;;;;;;;;;;;;;;;;12523485;28;19917;-85
2022/06/03 06:47:10;;;;;;;;;;;;;;;;;;12557828;28;19916;-84
2022/06/03 06:53:12;;;;;;;;;;;;;;;;;;12522033;28;19913;-84
2022/06/03 06:59:13;;;;;;;;;;;;;;;;;;12534194;28;20071;-84
2022/06/03 07:05:15;;;;;;;;;;;;;;;;;;12538207;28;19920;-84
2022/06/03 07:11:16;;;;;;;;;;;;;;;;;;12536016;28;19909;-84
2022/06/03 07:23:38;;;;;;;;;;;;;;;;;;12538962;28;19933;-81
2022/06/03 07:29:39;;;;;;;;;;;;;;;;;;12533103;28;20524;-83
2022/06/03 07:35:42;;;;;;;;;;;;;;;;;;12538136;28;20261;-83
2022/06/03 07:41:43;;;;;;;;;;;;;;;;;;12543113;28;20376;-84
2022/06/03 07:47:44;;;;;;;;;;;;;;;;;;12534538;28;19912;-83
2022/06/03 07:53:50;;;;;;;;;;;;;;;;;;12509511;28;19928;-83
2022/06/03 07:59:51;;;;;;;;;;;;;;;;;;12525613;28;19920;-83
2022/06/03 08:05:53;;;;;;;;;;;;;;;;;;12546702;28;19921;-83
2022/06/03 08:11:54;;;;;;;;;;;;;;;;;;12529716;28;19916;-83
2022/06/03 08:17:56;;;;;;;;;;;;;;;;;;12523726;28;19909;-86
2022/06/03 08:23:57;;;;;;;;;;;;;;;;;;12516152;28;20289;-88
2022/06/03 08:29:59;;;;;;;;;;;;;;;;;;12536514;28;19916;-87
2022/06/03 08:36:00;;;;;;;;;;;;;;;;;;12529268;28;19920;-86
2022/06/03 08:42:02;;;;;;;;;;;;;;;;;;12549403;28;20361;-87
2022/06/03 08:48:04;;;;;;;;;;;;;;;;;;12539720;28;20329;-86
2022/06/03 08:54:05;;;;;;;;;;;;;;;;;;12534679;28;19908;-83
2022/06/03 09:00:07;;;;;;;;;;;;;;;;;;12530298;28;19912;-87
2022/06/03 09:06:11;;;;;;;;;;;;;;;;;;12527303;28;19951;-82
2022/06/03 09:12:12;;;;;;;;;;;;;;;;;;12548182;28;19908;-78
2022/06/03 09:18:14;;;;;;;;;;;;;;;;;;12538622;28;19908;-81
2022/06/03 09:24:15;;;;;;;;;;;;;;;;;;12540878;28;19916;-82
2022/06/03 09:30:16;;;;;;;;;;;;;;;;;;12523634;28;19964;-85
2022/06/03 09:36:38;;;;;;;;;;;;;;;;;;12537256;28;19944;-81
2022/06/03 09:42:39;;;;;;;;;;;;;;;;;;12536489;28;20293;-82
2022/06/03 09:48:42;;;;;;;;;;;;;;;;;;12502569;28;19909;-82
2022/06/03 09:54:43;;;;;;;;;;;;;;;;;;12541658;28;19909;-83
2022/06/03 10:00:45;;;;;;;;;;;;;;;;;;12520543;28;19909;-81
2022/06/03 10:06:46;;;;;;;;;;;;;;;;;;12544702;28;19920;-85
2022/06/03 10:12:56;;;;;;;;;;;;;;;;;;12539458;28;19916;-84
2022/06/03 10:18:57;;;;;;;;;;;;;;;;;;12543784;28;20373;-83
2022/06/03 10:24:59;;;;;;;;;;;;;;;;;;12518728;28;19916;-84
2022/06/03 10:31:01;;;;;;;;;;;;;;;;;;12524312;28;19909;-82
2022/06/03 10:37:03;;;;;;;;;;;;;;;;;;12518670;28;19912;-83
2022/06/03 10:43:04;;;;;;;;;;;;;;;;;;12505063;28;19916;-83
2022/06/03 10:49:06;;;;;;;;;;;;;;;;;;12537043;28;19916;-82
2022/06/03 11:01:28;;;;;;;;;;;;;;;;;;12532399;28;19919;-90
2022/06/03 11:07:33;;;;;;;;;;;;;;;;;;12505953;28;19917;-85
2022/06/03 11:13:39;;;;;;;;;;;;;;;;;;12536479;28;19915;-82
2022/06/03 11:19:44;;;;;;;;;;;;;;;;;;12525240;28;19909;-80
2022/06/03 11:25:46;;;;;;;;;;;;;;;;;;12489994;28;19918;-80
2022/06/03 11:31:49;;;;;;;;;;;;;;;;;;12436499;28;19913;-79
2022/06/03 11:37:52;;;;;;;;;;;;;;;;;;12452871;28;19909;-79
2022/06/03 11:43:54;;;;;;;;;;;;;;;;;;12453041;28;19940;-79
2022/06/03 11:49:55;;;;;;;;;;;;;;;;;;12452357;28;19909;-79
2022/06/03 11:56:00;;;;;;;;;;;;;;;;;;12434238;28;19909;-80
2022/06/03 12:02:02;;;;;;;;;;;;;;;;;;12434379;28;20374;-79
2022/06/03 12:08:03;;;;;;;;;;;;;;;;;;12451314;28;19914;-79
2022/06/03 12:14:04;;;;;;;;;;;;;;;;;;12451972;28;19909;-79
2022/06/03 12:20:06;;;;;;;;;;;;;;;;;;12451249;28;19916;-79
2022/06/03 12:26:08;;;;;;;;;;;;;;;;;;12500027;28;19917;-79
2022/06/03 12:32:09;;;;;;;;;;;;;;;;;;12549088;28;19919;-79
2022/06/03 12:38:11;;;;;;;;;;;;;;;;;;12530029;28;19909;-81
2022/06/03 12:44:12;;;;;;;;;;;;;;;;;;12548758;28;19917;-81
2022/06/03 12:50:14;;;;;;;;;;;;;;;;;;12513792;28;19909;-81
2022/06/03 12:56:16;;;;;;;;;;;;;;;;;;12510451;28;19915;-81
2022/06/03 13:02:17;;;;;;;;;;;;;;;;;;12546683;28;19912;-81
2022/06/03 13:08:19;;;;;;;;;;;;;;;;;;12529262;28;19909;-82
2022/06/03 13:14:21;;;;;;;;;;;;;;;;;;12546709;28;20299;-81
2022/06/03 13:20:22;;;;;;;;;;;;;;;;;;12512255;28;19912;-82
2022/06/03 13:26:24;;;;;;;;;;;;;;;;;;12547387;28;19917;-81
2022/06/03 13:32:26;;;;;;;;;;;;;;;;;;12511954;28;20390;-82
2022/06/03 13:38:28;;;;;;;;;;;;;;;;;;12546246;28;19913;-82
2022/06/03 13:44:29;;;;;;;;;;;;;;;;;;12528116;28;20361;-81
2022/06/03 13:50:31;;;;;;;;;;;;;;;;;;12527737;28;19909;-82
2022/06/03 13:56:32;;;;;;;;;;;;;;;;;;12527824;28;19912;-82
2022/06/03 14:02:34;;;;;;;;;;;;;;;;;;12527656;28;19943;-81
2022/06/03 14:08:35;;;;;;;;;;;;;;;;;;12510870;28;19909;-81
2022/06/03 14:14:37;;;;;;;;;;;;;;;;;;12527500;28;19909;-81
2022/06/03 14:20:38;;;;;;;;;;;;;;;;;;12510546;28;19936;-81
2022/06/03 14:26:40;;;;;;;;;;;;;;;;;;12544552;28;20273;-81
2022/06/03 14:32:42;;;;;;;;;;;;;;;;;;12550402;28;19916;-81
2022/06/03 14:38:43;;;;;;;;;;;;;;;;;;12536837;28;19908;-81
2022/06/03 14:44:45;;;;;;;;;;;;;;;;;;12536282;28;19923;-81
2022/06/03 14:50:46;;;;;;;;;;;;;;;;;;12535995;28;20396;-81
2022/06/03 14:56:49;;;;;;;;;;;;;;;;;;12519442;28;19908;-81
2022/06/03 15:02:50;;;;;;;;;;;;;;;;;;12553214;28;19920;-81
2022/06/03 15:08:53;;;;;;;;;;;;;;;;;;12535333;28;19920;-81
2022/06/03 15:14:54;;;;;;;;;;;;;;;;;;12535818;28;19909;-81
2022/06/03 15:20:56;;;;;;;;;;;;;;;;;;12534997;28;19909;-82
2022/06/03 15:26:57;;;;;;;;;;;;;;;;;;12518140;28;19975;-82
2022/06/03 15:32:59;;;;;;;;;;;;;;;;;;12535221;28;20353;-81
2022/06/03 15:39:00;;;;;;;;;;;;;;;;;;12534036;28;20365;-82
2022/06/03 15:45:04;;;;;;;;;;;;;;;;;;12533033;28;19920;-81
2022/06/03 15:51:05;;;;;;;;;;;;;;;;;;12533230;28;19916;-81
2022/06/03 15:57:07;;;;;;;;;;;;;;;;;;12551259;28;19916;-81
2022/06/03 16:03:09;;;;;;;;;;;;;;;;;;12516251;28;20262;-81
2022/06/03 16:09:10;;;;;;;;;;;;;;;;;;12532598;28;20388;-81
2022/06/03 16:15:12;;;;;;;;;;;;;;;;;;12532056;28;20377;-81
2022/06/03 16:21:14;;;;;;;;;;;;;;;;;;12531904;28;20369;-82
2022/06/03 16:27:16;;;;;;;;;;;;;;;;;;12531811;28;19924;-82
2022/06/03 16:33:17;;;;;;;;;;;;;;;;;;12531846;28;20288;-81
2022/06/03 16:39:19;;;;;;;;;;;;;;;;;;12514569;28;19916;-81
2022/06/03 16:51:40;;;;;;;;;;;;;;;;;;12547936;28;19908;-81
2022/06/03 16:57:41;;;;;;;;;;;;;;;;;;12530001;28;19909;-82
2022/06/03 17:03:43;;;;;;;;;;;;;;;;;;12513640;28;19921;-81
2022/06/03 17:09:44;;;;;;;;;;;;;;;;;;12513147;28;19931;-81
2022/06/03 17:15:46;;;;;;;;;;;;;;;;;;12530089;28;19919;-81
2022/06/03 17:21:47;;;;;;;;;;;;;;;;;;12515105;28;19916;-82
2022/06/03 17:27:49;;;;;;;;;;;;;;;;;;12512911;28;19923;-81
2022/06/03 17:33:50;;;;;;;;;;;;;;;;;;12529014;28;19913;-81
2022/06/03 17:39:54;;;;;;;;;;;;;;;;;;12531052;28;19912;-81
2022/06/03 17:45:55;;;;;;;;;;;;;;;;;;12527681;28;19923;-82
2022/06/03 17:58:17;;;;;;;;;;;;;;;;;;12527714;28;20269;-82
2022/06/03 18:04:18;;;;;;;;;;;;;;;;;;12510507;28;19920;-82
2022/06/03 18:10:20;;;;;;;;;;;;;;;;;;12527190;28;19908;-82
2022/06/03 18:16:22;;;;;;;;;;;;;;;;;;12544875;28;19909;-82
2022/06/03 18:22:23;;;;;;;;;;;;;;;;;;12510376;28;19916;-82
2022/06/03 18:28:26;;;;;;;;;;;;;;;;;;12545407;28;19924;-82
2022/06/03 18:34:27;;;;;;;;;;;;;;;;;;12510209;28;19913;-82
2022/06/03 18:40:29;;;;;;;;;;;;;;;;;;12526260;28;19909;-81
2022/06/03 18:46:33;;;;;;;;;;;;;;;;;;12509897;28;19923;-82
2022/06/03 18:52:34;;;;;;;;;;;;;;;;;;12510049;28;19938;-82
2022/06/03 18:58:36;;;;;;;;;;;;;;;;;;12544447;28;19916;-81
2022/06/03 19:04:37;;;;;;;;;;;;;;;;;;12544256;28;20305;-81
2022/06/03 19:10:39;;;;;;;;;;;;;;;;;;12544007;28;19912;-81
2022/06/03 19:16:40;;;;;;;;;;;;;;;;;;12527609;28;19915;-82
2022/06/03 19:22:42;;;;;;;;;;;;;;;;;;12534747;28;19924;-81
2022/06/03 19:28:43;;;;;;;;;;;;;;;;;;12519012;28;19912;-82
2022/06/03 19:34:45;;;;;;;;;;;;;;;;;;12534067;28;19913;-82
2022/06/03 19:40:46;;;;;;;;;;;;;;;;;;12555049;28;19920;-82
2022/06/03 19:46:48;;;;;;;;;;;;;;;;;;12554800;28;19940;-82
2022/06/03 19:52:49;;;;;;;;;;;;;;;;;;12533563;28;20267;-82
2022/06/03 19:58:51;;;;;;;;;;;;;;;;;;12533697;28;20338;-83
2022/06/03 20:04:52;;;;;;;;;;;;;;;;;;12532852;28;19921;-83
2022/06/03 20:10:54;;;;;;;;;;;;;;;;;;12517126;28;19913;-82
2022/06/03 20:16:56;;;;;;;;;;;;;;;;;;12532496;28;19916;-83
2022/06/03 20:22:57;;;;;;;;;;;;;;;;;;12549522;28;20290;-83
2022/06/03 20:28:59;;;;;;;;;;;;;;;;;;12550897;28;20250;-83
2022/06/03 20:35:00;;;;;;;;;;;;;;;;;;12531450;28;20372;-83
2022/06/03 20:41:02;;;;;;;;;;;;;;;;;;12531067;28;19908;-83
2022/06/03 20:47:03;;;;;;;;;;;;;;;;;;12514306;28;19917;-82
2022/06/03 20:53:05;;;;;;;;;;;;;;;;;;12531256;28;20277;-83
2022/06/03 20:59:08;;;;;;;;;;;;;;;;;;12531542;28;19915;-82
2022/06/03 21:17:50;;;;;;;;;;;;;;;;;;12529589;28;19915;-83
2022/06/03 21:23:52;;;;;;;;;;;;;;;;;;12529023;28;19917;-83
2022/06/03 21:29:54;;;;;;;;;;;;;;;;;;12547408;28;19909;-83
2022/06/03 21:35:55;;;;;;;;;;;;;;;;;;12546499;28;19919;-83
2022/06/03 21:41:57;;;;;;;;;;;;;;;;;;12546099;28;19909;-83
2022/06/03 21:48:00;;;;;;;;;;;;;;;;;;12543794;28;19924;-81
2022/06/03 21:54:01;;;;;;;;;;;;;;;;;;12527852;28;19912;-83
2022/06/03 22:00:03;;;;;;;;;;;;;;;;;;12511796;28;19912;-83
2022/06/03 22:06:06;;;;;;;;;;;;;;;;;;12545164;28;19921;-83
2022/06/03 22:18:27;;;;;;;;;;;;;;;;;;12526986;28;19909;-82
2022/06/03 22:24:29;;;;;;;;;;;;;;;;;;12544940;28;19917;-81
2022/06/03 22:30:30;;;;;;;;;;;;;;;;;;12511200;28;19909;-82
2022/06/03 22:36:32;;;;;;;;;;;;;;;;;;12526580;28;19920;-82
2022/06/03 22:42:33;;;;;;;;;;;;;;;;;;12544206;28;19908;-81
2022/06/03 22:48:35;;;;;;;;;;;;;;;;;;12526331;28;20366;-82
2022/06/03 22:54:37;;;;;;;;;;;;;;;;;;12552065;28;19908;-82
2022/06/03 23:00:38;;;;;;;;;;;;;;;;;;12536462;28;19913;-82
2022/06/03 23:06:40;;;;;;;;;;;;;;;;;;12535664;28;20286;-82
2022/06/03 23:12:41;;;;;;;;;;;;;;;;;;12552968;28;19908;-82
2022/06/03 23:18:43;;;;;;;;;;;;;;;;;;12518588;28;19912;-82
2022/06/03 23:24:44;;;;;;;;;;;;;;;;;;12518168;28;19924;-82
2022/06/03 23:30:46;;;;;;;;;;;;;;;;;;12553529;28;19915;-82
2022/06/03 23:36:47;;;;;;;;;;;;;;;;;;12518300;28;19913;-82
2022/06/03 23:49:09;;;;;;;;;;;;;;;;;;12551293;28;19917;-82
2022/06/03 23:55:11;;;;;;;;;;;;;;;;;;12551754;28;19908;-82
